sensor_id;sensor_type;location;lat;lon;timestamp;P1;durP1;ratioP1;P2;durP2;ratioP2
22967;SDS011;11650;48.106;-1.696;2023-07-31T00:00:24;25.50;;;7.57;;
22967;SDS011;11650;48.106;-1.696;2023-07-31T00:02:51;26.47;;;7.90;;
22967;SDS011;11650;48.106;-1.696;2023-07-31T00:05:17;26.83;;;7.57;;
22967;SDS011;11650;48.106;-1.696;2023-07-31T00:07:43;21.83;;;7.10;;
22967;SDS011;11650;48.106;-1.696;2023-07-31T00:10:08;26.03;;;7.77;;
22967;SDS011;11650;48.106;-1.696;2023-07-31T00:12:34;22.00;;;7.70;;
22967;SDS011;11650;48.106;-1.696;2023-07-31T00:15:00;26.77;;;7.70;;
22967;SDS011;11650;48.106;-1.696;2023-07-31T00:17:27;20.00;;;8.27;;
22967;SDS011;11650;48.106;-1.696;2023-07-31T00:19:53;22.90;;;7.40;;
22967;SDS011;11650;48.106;-1.696;2023-07-31T00:22:18;25.47;;;7.40;;
22967;SDS011;11650;48.106;-1.696;2023-07-31T00:24:44;26.73;;;7.77;;
22967;SDS011;11650;48.106;-1.696;2023-07-31T00:27:09;22.57;;;7.57;;
22967;SDS011;11650;48.106;-1.696;2023-07-31T00:29:35;25.30;;;7.80;;
22967;SDS011;11650;48.106;-1.696;2023-07-31T00:32:01;18.53;;;6.60;;
22967;SDS011;11650;48.106;-1.696;2023-07-31T00:34:26;30.97;;;8.57;;
22967;SDS011;11650;48.106;-1.696;2023-07-31T00:36:52;23.43;;;7.60;;
22967;SDS011;11650;48.106;-1.696;2023-07-31T00:39:17;28.27;;;7.77;;
22967;SDS011;11650;48.106;-1.696;2023-07-31T00:41:43;20.63;;;6.37;;
22967;SDS011;11650;48.106;-1.696;2023-07-31T00:44:09;24.33;;;7.20;;
22967;SDS011;11650;48.106;-1.696;2023-07-31T00:46:35;23.80;;;7.43;;
22967;SDS011;11650;48.106;-1.696;2023-07-31T00:49:00;25.50;;;7.47;;
22967;SDS011;11650;48.106;-1.696;2023-07-31T00:51:26;23.20;;;7.37;;
22967;SDS011;11650;48.106;-1.696;2023-07-31T00:53:51;19.90;;;7.10;;
22967;SDS011;11650;48.106;-1.696;2023-07-31T00:56:19;22.13;;;7.43;;
22967;SDS011;11650;48.106;-1.696;2023-07-31T00:58:45;26.67;;;7.20;;
22967;SDS011;11650;48.106;-1.696;2023-07-31T01:01:10;26.90;;;7.80;;
22967;SDS011;11650;48.106;-1.696;2023-07-31T01:03:36;25.60;;;7.13;;
22967;SDS011;11650;48.106;-1.696;2023-07-31T01:11:30;22.07;;;7.23;;
22967;SDS011;11650;48.106;-1.696;2023-07-31T01:13:58;23.97;;;8.40;;
22967;SDS011;11650;48.106;-1.696;2023-07-31T01:16:25;20.07;;;7.10;;
22967;SDS011;11650;48.106;-1.696;2023-07-31T01:18:51;26.50;;;6.67;;
22967;SDS011;11650;48.106;-1.696;2023-07-31T01:21:29;24.70;;;7.57;;
22967;SDS011;11650;48.106;-1.696;2023-07-31T01:27:09;18.93;;;7.40;;
22967;SDS011;11650;48.106;-1.696;2023-07-31T01:30:21;25.13;;;7.87;;
22967;SDS011;11650;48.106;-1.696;2023-07-31T01:32:28;23.83;;;7.20;;
22967;SDS011;11650;48.106;-1.696;2023-07-31T01:34:54;24.83;;;7.37;;
22967;SDS011;11650;48.106;-1.696;2023-07-31T01:37:27;29.97;;;8.20;;
22967;SDS011;11650;48.106;-1.696;2023-07-31T01:39:54;26.17;;;7.33;;
22967;SDS011;11650;48.106;-1.696;2023-07-31T01:42:20;25.90;;;7.80;;
22967;SDS011;11650;48.106;-1.696;2023-07-31T01:44:46;24.10;;;7.77;;
22967;SDS011;11650;48.106;-1.696;2023-07-31T01:47:11;22.93;;;8.20;;
22967;SDS011;11650;48.106;-1.696;2023-07-31T01:49:37;31.70;;;8.67;;
22967;SDS011;11650;48.106;-1.696;2023-07-31T01:52:03;27.03;;;7.87;;
22967;SDS011;11650;48.106;-1.696;2023-07-31T01:54:28;20.90;;;8.13;;
22967;SDS011;11650;48.106;-1.696;2023-07-31T01:56:54;21.60;;;7.07;;
22967;SDS011;11650;48.106;-1.696;2023-07-31T01:59:20;19.33;;;6.27;;
22967;SDS011;11650;48.106;-1.696;2023-07-31T02:01:45;25.63;;;7.63;;
22967;SDS011;11650;48.106;-1.696;2023-07-31T02:04:11;21.53;;;8.23;;
22967;SDS011;11650;48.106;-1.696;2023-07-31T02:06:37;18.70;;;6.97;;
22967;SDS011;11650;48.106;-1.696;2023-07-31T02:09:04;21.27;;;6.77;;
22967;SDS011;11650;48.106;-1.696;2023-07-31T02:11:30;25.37;;;6.93;;
22967;SDS011;11650;48.106;-1.696;2023-07-31T02:13:55;17.83;;;6.30;;
22967;SDS011;11650;48.106;-1.696;2023-07-31T02:16:21;24.03;;;7.63;;
22967;SDS011;11650;48.106;-1.696;2023-07-31T02:18:47;24.73;;;7.40;;
22967;SDS011;11650;48.106;-1.696;2023-07-31T02:21:12;27.77;;;7.87;;
22967;SDS011;11650;48.106;-1.696;2023-07-31T02:23:38;22.77;;;7.43;;
22967;SDS011;11650;48.106;-1.696;2023-07-31T02:26:03;22.33;;;7.07;;
22967;SDS011;11650;48.106;-1.696;2023-07-31T02:28:29;24.40;;;7.63;;
22967;SDS011;11650;48.106;-1.696;2023-07-31T02:30:55;22.13;;;7.70;;
22967;SDS011;11650;48.106;-1.696;2023-07-31T02:33:21;23.23;;;7.60;;
22967;SDS011;11650;48.106;-1.696;2023-07-31T02:35:46;24.47;;;7.50;;
22967;SDS011;11650;48.106;-1.696;2023-07-31T02:38:12;21.40;;;7.07;;
22967;SDS011;11650;48.106;-1.696;2023-07-31T02:40:39;20.93;;;7.00;;
22967;SDS011;11650;48.106;-1.696;2023-07-31T02:43:06;22.17;;;7.67;;
22967;SDS011;11650;48.106;-1.696;2023-07-31T02:45:32;24.73;;;7.77;;
22967;SDS011;11650;48.106;-1.696;2023-07-31T02:47:58;22.30;;;8.17;;
22967;SDS011;11650;48.106;-1.696;2023-07-31T02:50:23;22.27;;;7.70;;
22967;SDS011;11650;48.106;-1.696;2023-07-31T02:52:49;25.27;;;7.70;;
22967;SDS011;11650;48.106;-1.696;2023-07-31T02:55:15;19.67;;;7.73;;
22967;SDS011;11650;48.106;-1.696;2023-07-31T02:57:40;19.10;;;7.00;;
22967;SDS011;11650;48.106;-1.696;2023-07-31T03:00:06;23.07;;;7.03;;
22967;SDS011;11650;48.106;-1.696;2023-07-31T03:02:32;25.40;;;7.67;;
22967;SDS011;11650;48.106;-1.696;2023-07-31T03:04:58;21.43;;;7.50;;
22967;SDS011;11650;48.106;-1.696;2023-07-31T03:07:23;24.73;;;7.80;;
22967;SDS011;11650;48.106;-1.696;2023-07-31T03:09:49;23.17;;;7.63;;
22967;SDS011;11650;48.106;-1.696;2023-07-31T03:12:15;21.63;;;7.33;;
22967;SDS011;11650;48.106;-1.696;2023-07-31T03:14:40;26.70;;;8.07;;
22967;SDS011;11650;48.106;-1.696;2023-07-31T03:17:06;18.53;;;7.07;;
22967;SDS011;11650;48.106;-1.696;2023-07-31T03:19:32;22.00;;;6.80;;
22967;SDS011;11650;48.106;-1.696;2023-07-31T03:21:58;18.83;;;7.50;;
22967;SDS011;11650;48.106;-1.696;2023-07-31T03:24:24;21.37;;;7.30;;
22967;SDS011;11650;48.106;-1.696;2023-07-31T03:26:50;24.03;;;7.03;;
22967;SDS011;11650;48.106;-1.696;2023-07-31T03:29:16;17.57;;;6.70;;
22967;SDS011;11650;48.106;-1.696;2023-07-31T03:31:41;22.30;;;6.57;;
22967;SDS011;11650;48.106;-1.696;2023-07-31T03:34:07;21.27;;;7.30;;
22967;SDS011;11650;48.106;-1.696;2023-07-31T03:36:33;23.00;;;7.20;;
22967;SDS011;11650;48.106;-1.696;2023-07-31T03:38:59;20.07;;;6.20;;
22967;SDS011;11650;48.106;-1.696;2023-07-31T03:41:24;21.50;;;7.40;;
22967;SDS011;11650;48.106;-1.696;2023-07-31T03:43:50;25.03;;;7.10;;
22967;SDS011;11650;48.106;-1.696;2023-07-31T03:46:23;19.27;;;6.90;;
22967;SDS011;11650;48.106;-1.696;2023-07-31T03:48:49;19.67;;;5.67;;
22967;SDS011;11650;48.106;-1.696;2023-07-31T03:51:15;30.83;;;8.27;;
22967;SDS011;11650;48.106;-1.696;2023-07-31T03:53:42;24.33;;;7.00;;
22967;SDS011;11650;48.106;-1.696;2023-07-31T03:56:08;16.97;;;6.43;;
22967;SDS011;11650;48.106;-1.696;2023-07-31T03:58:34;18.73;;;6.83;;
22967;SDS011;11650;48.106;-1.696;2023-07-31T04:01:01;22.73;;;6.90;;
22967;SDS011;11650;48.106;-1.696;2023-07-31T04:03:26;27.23;;;7.13;;
22967;SDS011;11650;48.106;-1.696;2023-07-31T04:05:53;15.90;;;6.23;;
22967;SDS011;11650;48.106;-1.696;2023-07-31T04:08:20;21.47;;;6.60;;
22967;SDS011;11650;48.106;-1.696;2023-07-31T04:10:46;20.97;;;7.07;;
22967;SDS011;11650;48.106;-1.696;2023-07-31T04:13:12;19.60;;;6.57;;
22967;SDS011;11650;48.106;-1.696;2023-07-31T04:15:38;18.80;;;6.50;;
22967;SDS011;11650;48.106;-1.696;2023-07-31T04:18:04;19.60;;;6.70;;
22967;SDS011;11650;48.106;-1.696;2023-07-31T04:20:30;20.40;;;6.47;;
22967;SDS011;11650;48.106;-1.696;2023-07-31T04:22:56;21.73;;;7.07;;
22967;SDS011;11650;48.106;-1.696;2023-07-31T04:25:21;22.73;;;7.10;;
22967;SDS011;11650;48.106;-1.696;2023-07-31T04:27:47;23.27;;;7.73;;
22967;SDS011;11650;48.106;-1.696;2023-07-31T04:30:13;21.10;;;6.30;;
22967;SDS011;11650;48.106;-1.696;2023-07-31T04:32:38;20.07;;;6.37;;
22967;SDS011;11650;48.106;-1.696;2023-07-31T04:35:04;22.13;;;7.10;;
22967;SDS011;11650;48.106;-1.696;2023-07-31T04:37:30;19.93;;;6.17;;
22967;SDS011;11650;48.106;-1.696;2023-07-31T04:39:56;23.47;;;7.17;;
22967;SDS011;11650;48.106;-1.696;2023-07-31T04:42:22;19.60;;;6.23;;
22967;SDS011;11650;48.106;-1.696;2023-07-31T04:44:47;20.60;;;6.50;;
22967;SDS011;11650;48.106;-1.696;2023-07-31T04:47:13;25.40;;;7.00;;
22967;SDS011;11650;48.106;-1.696;2023-07-31T04:49:38;18.80;;;6.83;;
22967;SDS011;11650;48.106;-1.696;2023-07-31T04:52:04;16.77;;;6.20;;
22967;SDS011;11650;48.106;-1.696;2023-07-31T04:54:30;17.87;;;6.33;;
22967;SDS011;11650;48.106;-1.696;2023-07-31T04:56:56;24.53;;;7.00;;
22967;SDS011;11650;48.106;-1.696;2023-07-31T04:59:21;19.27;;;6.50;;
22967;SDS011;11650;48.106;-1.696;2023-07-31T05:01:47;20.77;;;6.60;;
22967;SDS011;11650;48.106;-1.696;2023-07-31T05:04:13;28.73;;;7.83;;
22967;SDS011;11650;48.106;-1.696;2023-07-31T05:06:42;21.83;;;6.60;;
22967;SDS011;11650;48.106;-1.696;2023-07-31T05:09:08;23.70;;;6.80;;
22967;SDS011;11650;48.106;-1.696;2023-07-31T05:11:34;22.47;;;6.87;;
22967;SDS011;11650;48.106;-1.696;2023-07-31T05:14:00;19.90;;;7.07;;
22967;SDS011;11650;48.106;-1.696;2023-07-31T05:16:26;20.90;;;6.53;;
22967;SDS011;11650;48.106;-1.696;2023-07-31T05:18:51;18.70;;;5.83;;
22967;SDS011;11650;48.106;-1.696;2023-07-31T05:21:17;20.43;;;6.30;;
22967;SDS011;11650;48.106;-1.696;2023-07-31T05:23:42;18.03;;;5.90;;
22967;SDS011;11650;48.106;-1.696;2023-07-31T05:26:08;18.23;;;6.07;;
22967;SDS011;11650;48.106;-1.696;2023-07-31T05:28:36;24.10;;;6.70;;
22967;SDS011;11650;48.106;-1.696;2023-07-31T05:31:03;21.73;;;6.53;;
22967;SDS011;11650;48.106;-1.696;2023-07-31T05:33:29;25.83;;;6.67;;
22967;SDS011;11650;48.106;-1.696;2023-07-31T05:35:55;19.93;;;6.50;;
22967;SDS011;11650;48.106;-1.696;2023-07-31T05:38:21;21.13;;;6.33;;
22967;SDS011;11650;48.106;-1.696;2023-07-31T05:40:47;18.10;;;5.87;;
22967;SDS011;11650;48.106;-1.696;2023-07-31T05:43:13;18.83;;;5.87;;
22967;SDS011;11650;48.106;-1.696;2023-07-31T05:45:39;18.80;;;5.63;;
22967;SDS011;11650;48.106;-1.696;2023-07-31T05:48:05;22.13;;;6.47;;
22967;SDS011;11650;48.106;-1.696;2023-07-31T05:50:31;16.93;;;6.13;;
22967;SDS011;11650;48.106;-1.696;2023-07-31T05:52:57;15.83;;;6.33;;
22967;SDS011;11650;48.106;-1.696;2023-07-31T05:55:23;18.53;;;5.77;;
22967;SDS011;11650;48.106;-1.696;2023-07-31T05:57:51;18.87;;;6.23;;
22967;SDS011;11650;48.106;-1.696;2023-07-31T06:00:17;17.97;;;4.83;;
22967;SDS011;11650;48.106;-1.696;2023-07-31T06:02:43;15.70;;;5.67;;
22967;SDS011;11650;48.106;-1.696;2023-07-31T06:05:09;21.67;;;5.77;;
22967;SDS011;11650;48.106;-1.696;2023-07-31T06:07:35;13.83;;;5.57;;
22967;SDS011;11650;48.106;-1.696;2023-07-31T06:10:01;16.93;;;5.33;;
22967;SDS011;11650;48.106;-1.696;2023-07-31T06:12:30;18.93;;;5.67;;
22967;SDS011;11650;48.106;-1.696;2023-07-31T06:14:56;24.27;;;6.00;;
22967;SDS011;11650;48.106;-1.696;2023-07-31T06:17:22;20.63;;;5.27;;
22967;SDS011;11650;48.106;-1.696;2023-07-31T06:19:48;20.23;;;5.87;;
22967;SDS011;11650;48.106;-1.696;2023-07-31T06:22:15;14.63;;;5.00;;
22967;SDS011;11650;48.106;-1.696;2023-07-31T06:24:40;15.13;;;5.20;;
22967;SDS011;11650;48.106;-1.696;2023-07-31T06:27:06;14.93;;;5.00;;
22967;SDS011;11650;48.106;-1.696;2023-07-31T06:29:32;14.70;;;4.20;;
22967;SDS011;11650;48.106;-1.696;2023-07-31T06:31:57;12.87;;;4.50;;
22967;SDS011;11650;48.106;-1.696;2023-07-31T06:34:23;14.00;;;4.93;;
22967;SDS011;11650;48.106;-1.696;2023-07-31T06:36:49;17.33;;;4.50;;
22967;SDS011;11650;48.106;-1.696;2023-07-31T06:39:14;13.50;;;4.67;;
22967;SDS011;11650;48.106;-1.696;2023-07-31T06:41:41;14.40;;;4.50;;
22967;SDS011;11650;48.106;-1.696;2023-07-31T06:44:07;14.33;;;4.90;;
22967;SDS011;11650;48.106;-1.696;2023-07-31T06:46:33;15.53;;;4.33;;
22967;SDS011;11650;48.106;-1.696;2023-07-31T06:48:59;15.43;;;4.23;;
22967;SDS011;11650;48.106;-1.696;2023-07-31T06:51:24;13.50;;;4.50;;
22967;SDS011;11650;48.106;-1.696;2023-07-31T06:53:50;17.50;;;4.70;;
22967;SDS011;11650;48.106;-1.696;2023-07-31T06:56:16;14.87;;;4.53;;
22967;SDS011;11650;48.106;-1.696;2023-07-31T06:58:41;16.37;;;4.33;;
22967;SDS011;11650;48.106;-1.696;2023-07-31T07:01:07;14.33;;;4.37;;
22967;SDS011;11650;48.106;-1.696;2023-07-31T07:03:32;15.30;;;4.43;;
22967;SDS011;11650;48.106;-1.696;2023-07-31T07:05:58;13.57;;;4.20;;
22967;SDS011;11650;48.106;-1.696;2023-07-31T07:08:24;15.40;;;4.40;;
22967;SDS011;11650;48.106;-1.696;2023-07-31T07:10:50;17.33;;;4.20;;
22967;SDS011;11650;48.106;-1.696;2023-07-31T07:13:15;15.03;;;4.80;;
22967;SDS011;11650;48.106;-1.696;2023-07-31T07:15:43;13.67;;;3.80;;
22967;SDS011;11650;48.106;-1.696;2023-07-31T07:18:13;9.57;;;4.03;;
22967;SDS011;11650;48.106;-1.696;2023-07-31T07:20:39;13.17;;;4.40;;
22967;SDS011;11650;48.106;-1.696;2023-07-31T07:23:04;13.03;;;4.03;;
22967;SDS011;11650;48.106;-1.696;2023-07-31T07:25:30;15.23;;;4.37;;
22967;SDS011;11650;48.106;-1.696;2023-07-31T07:27:56;15.73;;;4.43;;
22967;SDS011;11650;48.106;-1.696;2023-07-31T07:30:21;15.73;;;4.20;;
22967;SDS011;11650;48.106;-1.696;2023-07-31T07:32:49;14.27;;;4.63;;
22967;SDS011;11650;48.106;-1.696;2023-07-31T07:35:15;14.27;;;3.90;;
22967;SDS011;11650;48.106;-1.696;2023-07-31T07:37:41;15.47;;;4.50;;
22967;SDS011;11650;48.106;-1.696;2023-07-31T07:40:06;12.17;;;4.07;;
22967;SDS011;11650;48.106;-1.696;2023-07-31T07:42:32;14.17;;;4.70;;
22967;SDS011;11650;48.106;-1.696;2023-07-31T07:44:58;16.17;;;4.50;;
22967;SDS011;11650;48.106;-1.696;2023-07-31T07:47:24;13.90;;;4.27;;
22967;SDS011;11650;48.106;-1.696;2023-07-31T07:49:49;14.17;;;4.20;;
22967;SDS011;11650;48.106;-1.696;2023-07-31T07:52:15;12.97;;;4.00;;
22967;SDS011;11650;48.106;-1.696;2023-07-31T07:54:41;13.00;;;4.37;;
22967;SDS011;11650;48.106;-1.696;2023-07-31T07:57:06;17.17;;;4.53;;
22967;SDS011;11650;48.106;-1.696;2023-07-31T07:59:32;10.87;;;3.23;;
22967;SDS011;11650;48.106;-1.696;2023-07-31T08:01:57;12.03;;;4.07;;
22967;SDS011;11650;48.106;-1.696;2023-07-31T08:04:23;11.80;;;4.00;;
22967;SDS011;11650;48.106;-1.696;2023-07-31T08:06:48;13.00;;;3.80;;
22967;SDS011;11650;48.106;-1.696;2023-07-31T08:09:14;14.63;;;3.70;;
22967;SDS011;11650;48.106;-1.696;2023-07-31T08:11:40;14.17;;;3.53;;
22967;SDS011;11650;48.106;-1.696;2023-07-31T08:14:05;12.63;;;3.60;;
22967;SDS011;11650;48.106;-1.696;2023-07-31T08:16:31;14.50;;;3.80;;
22967;SDS011;11650;48.106;-1.696;2023-07-31T08:18:57;7.67;;;3.40;;
22967;SDS011;11650;48.106;-1.696;2023-07-31T08:21:22;12.20;;;3.70;;
22967;SDS011;11650;48.106;-1.696;2023-07-31T08:23:48;13.47;;;3.10;;
22967;SDS011;11650;48.106;-1.696;2023-07-31T08:26:14;8.80;;;3.30;;
22967;SDS011;11650;48.106;-1.696;2023-07-31T08:28:44;10.90;;;4.20;;
22967;SDS011;11650;48.106;-1.696;2023-07-31T08:31:10;11.07;;;3.27;;
22967;SDS011;11650;48.106;-1.696;2023-07-31T08:33:36;13.57;;;3.40;;
22967;SDS011;11650;48.106;-1.696;2023-07-31T08:36:02;7.77;;;3.23;;
22967;SDS011;11650;48.106;-1.696;2023-07-31T08:38:28;8.27;;;2.80;;
22967;SDS011;11650;48.106;-1.696;2023-07-31T08:40:56;10.37;;;2.90;;
22967;SDS011;11650;48.106;-1.696;2023-07-31T08:43:22;10.70;;;3.10;;
22967;SDS011;11650;48.106;-1.696;2023-07-31T08:45:51;11.07;;;3.20;;
22967;SDS011;11650;48.106;-1.696;2023-07-31T08:48:17;9.63;;;2.80;;
22967;SDS011;11650;48.106;-1.696;2023-07-31T08:50:43;8.33;;;3.20;;
22967;SDS011;11650;48.106;-1.696;2023-07-31T08:53:09;8.93;;;3.03;;
22967;SDS011;11650;48.106;-1.696;2023-07-31T08:55:35;13.30;;;3.60;;
22967;SDS011;11650;48.106;-1.696;2023-07-31T08:58:02;10.17;;;3.47;;
22967;SDS011;11650;48.106;-1.696;2023-07-31T09:00:29;11.37;;;3.47;;
22967;SDS011;11650;48.106;-1.696;2023-07-31T09:05:33;9.40;;;3.27;;
22967;SDS011;11650;48.106;-1.696;2023-07-31T09:08:00;8.77;;;3.13;;
22967;SDS011;11650;48.106;-1.696;2023-07-31T09:10:28;8.60;;;3.30;;
22967;SDS011;11650;48.106;-1.696;2023-07-31T09:12:54;7.53;;;3.47;;
22967;SDS011;11650;48.106;-1.696;2023-07-31T09:15:20;9.27;;;3.53;;
22967;SDS011;11650;48.106;-1.696;2023-07-31T09:17:48;7.77;;;3.50;;
22967;SDS011;11650;48.106;-1.696;2023-07-31T09:20:27;7.17;;;3.20;;
22967;SDS011;11650;48.106;-1.696;2023-07-31T09:22:52;11.40;;;3.40;;
22967;SDS011;11650;48.106;-1.696;2023-07-31T09:25:22;10.90;;;3.30;;
22967;SDS011;11650;48.106;-1.696;2023-07-31T09:28:05;9.37;;;3.10;;
22967;SDS011;11650;48.106;-1.696;2023-07-31T09:30:44;11.73;;;3.10;;
22967;SDS011;11650;48.106;-1.696;2023-07-31T09:33:09;9.00;;;3.17;;
22967;SDS011;11650;48.106;-1.696;2023-07-31T09:35:35;7.93;;;3.37;;
22967;SDS011;11650;48.106;-1.696;2023-07-31T09:38:06;7.30;;;2.90;;
22967;SDS011;11650;48.106;-1.696;2023-07-31T09:40:37;8.50;;;3.20;;
22967;SDS011;11650;48.106;-1.696;2023-07-31T09:43:05;8.73;;;3.67;;
22967;SDS011;11650;48.106;-1.696;2023-07-31T09:45:38;8.00;;;3.30;;
22967;SDS011;11650;48.106;-1.696;2023-07-31T09:50:36;9.50;;;3.40;;
22967;SDS011;11650;48.106;-1.696;2023-07-31T09:53:03;10.07;;;3.73;;
22967;SDS011;11650;48.106;-1.696;2023-07-31T09:55:29;13.47;;;4.33;;
22967;SDS011;11650;48.106;-1.696;2023-07-31T09:57:56;8.90;;;4.60;;
22967;SDS011;11650;48.106;-1.696;2023-07-31T10:00:23;12.43;;;4.17;;
22967;SDS011;11650;48.106;-1.696;2023-07-31T10:02:50;13.90;;;4.63;;
22967;SDS011;11650;48.106;-1.696;2023-07-31T10:05:17;15.23;;;4.63;;
22967;SDS011;11650;48.106;-1.696;2023-07-31T10:07:51;10.37;;;4.10;;
22967;SDS011;11650;48.106;-1.696;2023-07-31T10:10:19;12.47;;;4.60;;
22967;SDS011;11650;48.106;-1.696;2023-07-31T10:12:48;17.63;;;4.90;;
22967;SDS011;11650;48.106;-1.696;2023-07-31T10:15:15;13.30;;;4.90;;
22967;SDS011;11650;48.106;-1.696;2023-07-31T10:17:41;12.43;;;4.93;;
22967;SDS011;11650;48.106;-1.696;2023-07-31T10:20:07;11.40;;;4.60;;
22967;SDS011;11650;48.106;-1.696;2023-07-31T10:22:33;14.30;;;4.70;;
22967;SDS011;11650;48.106;-1.696;2023-07-31T10:24:59;12.70;;;4.90;;
22967;SDS011;11650;48.106;-1.696;2023-07-31T10:27:26;10.63;;;4.57;;
22967;SDS011;11650;48.106;-1.696;2023-07-31T10:29:52;14.87;;;5.43;;
22967;SDS011;11650;48.106;-1.696;2023-07-31T10:32:21;15.90;;;5.30;;
22967;SDS011;11650;48.106;-1.696;2023-07-31T10:34:48;13.63;;;5.67;;
22967;SDS011;11650;48.106;-1.696;2023-07-31T10:40:00;13.90;;;5.37;;
22967;SDS011;11650;48.106;-1.696;2023-07-31T10:42:38;14.43;;;5.47;;
22967;SDS011;11650;48.106;-1.696;2023-07-31T10:45:15;12.93;;;5.07;;
22967;SDS011;11650;48.106;-1.696;2023-07-31T10:48:02;14.23;;;5.57;;
22967;SDS011;11650;48.106;-1.696;2023-07-31T10:50:47;17.87;;;6.60;;
22967;SDS011;11650;48.106;-1.696;2023-07-31T10:53:24;16.17;;;5.63;;
22967;SDS011;11650;48.106;-1.696;2023-07-31T10:56:01;18.30;;;6.03;;
22967;SDS011;11650;48.106;-1.696;2023-07-31T10:58:32;11.57;;;4.80;;
22967;SDS011;11650;48.106;-1.696;2023-07-31T11:01:02;14.77;;;5.20;;
22967;SDS011;11650;48.106;-1.696;2023-07-31T11:03:42;14.63;;;5.03;;
22967;SDS011;11650;48.106;-1.696;2023-07-31T11:06:12;10.87;;;4.40;;
22967;SDS011;11650;48.106;-1.696;2023-07-31T11:08:42;8.70;;;3.60;;
22967;SDS011;11650;48.106;-1.696;2023-07-31T11:11:12;10.57;;;4.97;;
22967;SDS011;11650;48.106;-1.696;2023-07-31T11:13:40;8.90;;;3.17;;
22967;SDS011;11650;48.106;-1.696;2023-07-31T11:16:17;8.63;;;3.93;;
22967;SDS011;11650;48.106;-1.696;2023-07-31T11:18:45;8.43;;;3.63;;
22967;SDS011;11650;48.106;-1.696;2023-07-31T11:21:16;9.87;;;3.53;;
22967;SDS011;11650;48.106;-1.696;2023-07-31T11:26:16;8.10;;;3.60;;
22967;SDS011;11650;48.106;-1.696;2023-07-31T11:28:42;11.13;;;4.20;;
22967;SDS011;11650;48.106;-1.696;2023-07-31T11:31:10;6.40;;;3.17;;
22967;SDS011;11650;48.106;-1.696;2023-07-31T11:33:36;10.83;;;4.37;;
22967;SDS011;11650;48.106;-1.696;2023-07-31T11:36:02;10.73;;;4.33;;
22967;SDS011;11650;48.106;-1.696;2023-07-31T11:38:29;13.63;;;4.77;;
22967;SDS011;11650;48.106;-1.696;2023-07-31T11:40:59;11.17;;;4.57;;
22967;SDS011;11650;48.106;-1.696;2023-07-31T11:43:30;8.33;;;4.33;;
22967;SDS011;11650;48.106;-1.696;2023-07-31T11:46:00;12.50;;;4.50;;
22967;SDS011;11650;48.106;-1.696;2023-07-31T11:48:31;9.43;;;3.90;;
22967;SDS011;11650;48.106;-1.696;2023-07-31T11:50:59;11.27;;;3.77;;
22967;SDS011;11650;48.106;-1.696;2023-07-31T11:53:45;12.80;;;4.67;;
22967;SDS011;11650;48.106;-1.696;2023-07-31T11:56:19;8.50;;;3.77;;
22967;SDS011;11650;48.106;-1.696;2023-07-31T11:58:46;9.60;;;3.87;;
22967;SDS011;11650;48.106;-1.696;2023-07-31T12:01:18;7.83;;;3.70;;
22967;SDS011;11650;48.106;-1.696;2023-07-31T12:03:46;10.87;;;3.97;;
22967;SDS011;11650;48.106;-1.696;2023-07-31T12:06:12;7.83;;;3.57;;
22967;SDS011;11650;48.106;-1.696;2023-07-31T12:08:38;9.80;;;4.47;;
22967;SDS011;11650;48.106;-1.696;2023-07-31T12:11:04;11.37;;;4.53;;
22967;SDS011;11650;48.106;-1.696;2023-07-31T12:13:31;13.50;;;5.07;;
22967;SDS011;11650;48.106;-1.696;2023-07-31T12:16:00;10.10;;;4.00;;
22967;SDS011;11650;48.106;-1.696;2023-07-31T12:18:29;9.13;;;4.30;;
22967;SDS011;11650;48.106;-1.696;2023-07-31T12:21:01;7.07;;;3.53;;
22967;SDS011;11650;48.106;-1.696;2023-07-31T12:23:29;5.90;;;3.07;;
22967;SDS011;11650;48.106;-1.696;2023-07-31T12:26:00;7.23;;;3.73;;
22967;SDS011;11650;48.106;-1.696;2023-07-31T12:28:35;10.70;;;3.80;;
22967;SDS011;11650;48.106;-1.696;2023-07-31T12:31:15;4.47;;;3.07;;
22967;SDS011;11650;48.106;-1.696;2023-07-31T12:33:45;6.57;;;3.07;;
22967;SDS011;11650;48.106;-1.696;2023-07-31T12:36:13;6.17;;;3.00;;
22967;SDS011;11650;48.106;-1.696;2023-07-31T12:38:40;8.87;;;3.77;;
22967;SDS011;11650;48.106;-1.696;2023-07-31T12:41:07;6.90;;;3.30;;
22967;SDS011;11650;48.106;-1.696;2023-07-31T12:43:33;5.53;;;3.13;;
22967;SDS011;11650;48.106;-1.696;2023-07-31T12:46:00;6.33;;;2.70;;
22967;SDS011;11650;48.106;-1.696;2023-07-31T12:48:25;3.20;;;2.00;;
22967;SDS011;11650;48.106;-1.696;2023-07-31T12:50:51;4.97;;;2.70;;
22967;SDS011;11650;48.106;-1.696;2023-07-31T12:53:16;4.73;;;2.10;;
22967;SDS011;11650;48.106;-1.696;2023-07-31T12:55:42;3.80;;;1.90;;
22967;SDS011;11650;48.106;-1.696;2023-07-31T12:58:08;6.43;;;2.17;;
22967;SDS011;11650;48.106;-1.696;2023-07-31T13:00:34;6.27;;;2.30;;
22967;SDS011;11650;48.106;-1.696;2023-07-31T13:03:00;5.67;;;2.27;;
22967;SDS011;11650;48.106;-1.696;2023-07-31T13:05:26;3.20;;;1.67;;
22967;SDS011;11650;48.106;-1.696;2023-07-31T13:07:52;4.43;;;2.17;;
22967;SDS011;11650;48.106;-1.696;2023-07-31T13:10:18;5.43;;;2.10;;
22967;SDS011;11650;48.106;-1.696;2023-07-31T13:12:44;2.70;;;1.50;;
22967;SDS011;11650;48.106;-1.696;2023-07-31T13:15:10;6.00;;;2.07;;
22967;SDS011;11650;48.106;-1.696;2023-07-31T13:17:36;3.80;;;2.00;;
22967;SDS011;11650;48.106;-1.696;2023-07-31T13:20:02;4.27;;;1.80;;
22967;SDS011;11650;48.106;-1.696;2023-07-31T13:22:28;2.67;;;1.80;;
22967;SDS011;11650;48.106;-1.696;2023-07-31T13:24:54;2.87;;;2.07;;
22967;SDS011;11650;48.106;-1.696;2023-07-31T13:27:20;4.17;;;1.80;;
22967;SDS011;11650;48.106;-1.696;2023-07-31T13:29:47;2.20;;;1.50;;
22967;SDS011;11650;48.106;-1.696;2023-07-31T13:32:14;4.40;;;1.40;;
22967;SDS011;11650;48.106;-1.696;2023-07-31T13:34:40;3.20;;;1.60;;
22967;SDS011;11650;48.106;-1.696;2023-07-31T13:37:06;3.47;;;1.60;;
22967;SDS011;11650;48.106;-1.696;2023-07-31T13:39:32;2.53;;;1.57;;
22967;SDS011;11650;48.106;-1.696;2023-07-31T13:42:02;4.33;;;2.03;;
22967;SDS011;11650;48.106;-1.696;2023-07-31T13:44:28;4.63;;;2.10;;
22967;SDS011;11650;48.106;-1.696;2023-07-31T13:46:54;4.37;;;2.50;;
22967;SDS011;11650;48.106;-1.696;2023-07-31T13:49:19;2.90;;;1.97;;
22967;SDS011;11650;48.106;-1.696;2023-07-31T13:51:45;4.10;;;2.33;;
22967;SDS011;11650;48.106;-1.696;2023-07-31T13:54:11;5.97;;;2.10;;
22967;SDS011;11650;48.106;-1.696;2023-07-31T13:56:37;4.47;;;2.30;;
22967;SDS011;11650;48.106;-1.696;2023-07-31T13:59:03;8.03;;;2.30;;
22967;SDS011;11650;48.106;-1.696;2023-07-31T14:01:29;7.27;;;2.33;;
22967;SDS011;11650;48.106;-1.696;2023-07-31T14:03:54;5.80;;;2.50;;
22967;SDS011;11650;48.106;-1.696;2023-07-31T14:06:20;7.83;;;2.43;;
22967;SDS011;11650;48.106;-1.696;2023-07-31T14:08:46;6.23;;;2.20;;
22967;SDS011;11650;48.106;-1.696;2023-07-31T14:11:12;5.73;;;2.67;;
22967;SDS011;11650;48.106;-1.696;2023-07-31T14:13:37;8.40;;;2.30;;
22967;SDS011;11650;48.106;-1.696;2023-07-31T14:16:03;3.60;;;2.10;;
22967;SDS011;11650;48.106;-1.696;2023-07-31T14:18:29;5.20;;;2.03;;
22967;SDS011;11650;48.106;-1.696;2023-07-31T14:20:54;5.27;;;2.93;;
22967;SDS011;11650;48.106;-1.696;2023-07-31T14:23:20;3.53;;;2.60;;
22967;SDS011;11650;48.106;-1.696;2023-07-31T14:25:46;4.00;;;2.23;;
22967;SDS011;11650;48.106;-1.696;2023-07-31T14:28:12;4.33;;;2.43;;
22967;SDS011;11650;48.106;-1.696;2023-07-31T14:30:38;8.57;;;2.93;;
22967;SDS011;11650;48.106;-1.696;2023-07-31T14:33:03;5.43;;;3.00;;
22967;SDS011;11650;48.106;-1.696;2023-07-31T14:35:29;7.03;;;2.60;;
22967;SDS011;11650;48.106;-1.696;2023-07-31T14:37:55;5.63;;;2.80;;
22967;SDS011;11650;48.106;-1.696;2023-07-31T14:40:20;6.77;;;2.93;;
22967;SDS011;11650;48.106;-1.696;2023-07-31T14:42:46;4.10;;;2.40;;